Terminal Aerodrome Forecast
Issued by NWS

Home | Current Version | Previous Version | Text Only | Print | Product List | Glossary On
Versions: 1 2 3 4 5 6 7 8 9 10 11 12 13 14 15 16 17
000
FTUS41 KGYX 131700
TAFPSM
TAF
KPSM 131728Z 1318/1418 19010G22KT P6SM SCT045 BKN090
     FM132300 18010KT P6SM VCSH OVC035
     FM140700 18005KT 2SM BR SCT002 BKN035
     FM141100 20006KT P6SM BKN005 OVC030=

USA.gov is the U.S. government's official web portal to all federal, state and local government web resources and services.